createdAt,value
2023-05-05T00:01:19.047Z,22.62
2023-05-05T00:03:50.201Z,22.56
2023-05-05T00:06:21.257Z,22.57
2023-05-05T00:08:51.947Z,22.60
2023-05-05T00:11:22.322Z,22.53
2023-05-05T00:13:53.563Z,22.53
2023-05-05T00:16:24.817Z,22.56
2023-05-05T00:18:55.645Z,22.62
2023-05-05T00:21:26.307Z,22.64
2023-05-05T00:23:56.715Z,22.64
2023-05-05T00:26:27.700Z,22.63
2023-05-05T00:28:59.486Z,22.64
2023-05-05T00:31:31.369Z,22.63
2023-05-05T00:34:03.070Z,22.66
2023-05-05T00:36:34.204Z,22.64
2023-05-05T00:39:05.304Z,22.62
2023-05-05T00:41:37.023Z,22.60
2023-05-05T00:44:08.926Z,22.59
2023-05-05T00:46:39.497Z,22.57
2023-05-05T00:49:11.519Z,22.57
2023-05-05T00:51:43.951Z,22.60
2023-05-05T00:54:15.484Z,22.62
2023-05-05T00:56:47.289Z,22.62
2023-05-05T00:59:19.105Z,22.60
2023-05-05T01:01:50.604Z,22.63
2023-05-05T01:04:21.572Z,22.59
2023-05-05T01:07:17.417Z,22.67
2023-05-05T01:10:11.426Z,22.64
2023-05-05T01:12:57.240Z,22.64
2023-05-05T01:15:35.198Z,22.62
2023-05-05T01:18:18.113Z,22.60
2023-05-05T01:21:08.711Z,22.64
2023-05-05T01:24:06.886Z,22.64
2023-05-05T01:27:16.641Z,22.64
2023-05-05T01:30:22.336Z,22.57
2023-05-05T01:32:58.195Z,22.60
2023-05-05T01:35:54.270Z,22.57
2023-05-05T01:38:35.746Z,22.64
2023-05-05T01:41:22.542Z,22.59
2023-05-05T01:43:55.666Z,22.55
2023-05-05T01:46:27.215Z,22.55
2023-05-05T01:49:00.501Z,22.53
2023-05-05T01:51:41.702Z,22.49
2023-05-05T01:54:16.186Z,22.51
2023-05-05T01:56:48.674Z,22.46
2023-05-05T01:59:22.578Z,22.39
2023-05-05T02:01:55.129Z,22.31
2023-05-05T02:04:26.593Z,22.25
2023-05-05T02:07:00.341Z,22.23
2023-05-05T02:09:31.549Z,22.19
2023-05-05T02:12:03.875Z,22.15
2023-05-05T02:14:37.241Z,22.09
2023-05-05T02:17:08.014Z,22.05
2023-05-05T02:19:44.452Z,22.08
2023-05-05T02:22:17.916Z,22.06
2023-05-05T02:24:48.508Z,22.02
2023-05-05T02:27:22.128Z,22.01
2023-05-05T02:30:01.090Z,22.05
2023-05-05T02:32:40.899Z,22.04
2023-05-05T02:35:23.344Z,22.02
2023-05-05T02:38:01.486Z,22.00
2023-05-05T02:40:39.036Z,22.00
2023-05-05T02:43:13.109Z,22.02
2023-05-05T02:45:47.606Z,22.06
2023-05-05T02:48:26.083Z,22.08
2023-05-05T02:51:04.759Z,22.06
2023-05-05T02:53:39.468Z,22.04
2023-05-05T02:56:28.159Z,22.01
2023-05-05T02:59:17.654Z,22.06
2023-05-05T03:02:26.323Z,22.05
2023-05-05T03:05:25.439Z,22.06
2023-05-05T03:08:05.915Z,22.11
2023-05-05T03:11:08.258Z,22.11
2023-05-05T03:13:46.852Z,22.16
2023-05-05T03:16:21.798Z,22.13
2023-05-05T03:18:55.407Z,22.13
2023-05-05T03:21:27.362Z,22.11
2023-05-05T03:23:59.871Z,22.11
2023-05-05T03:26:32.378Z,22.13
2023-05-05T03:29:04.862Z,22.19
2023-05-05T03:34:31.993Z,22.16
2023-05-05T03:37:07.426Z,22.19
2023-05-05T03:39:41.621Z,22.15
2023-05-05T03:42:16.591Z,22.18
2023-05-05T03:44:50.412Z,22.23
2023-05-05T03:47:22.463Z,22.19
2023-05-05T03:49:53.764Z,22.18
2023-05-05T03:52:25.582Z,22.19
2023-05-05T03:54:57.109Z,22.21
2023-05-05T03:57:31.122Z,22.22
2023-05-05T04:00:02.843Z,22.23
2023-05-05T04:02:54.338Z,22.26
2023-05-05T04:05:27.926Z,22.35
2023-05-05T04:08:00.656Z,22.33
2023-05-05T04:10:35.442Z,22.36
2023-05-05T04:13:09.084Z,22.39
2023-05-05T04:15:40.129Z,22.39
2023-05-05T04:18:11.720Z,22.35
2023-05-05T04:20:44.000Z,22.33
2023-05-05T04:23:16.313Z,22.33
2023-05-05T04:25:48.452Z,22.31
2023-05-05T04:28:21.601Z,22.32
2023-05-05T04:30:53.474Z,22.31
2023-05-05T04:33:24.827Z,22.32
2023-05-05T04:35:54.938Z,22.29
2023-05-05T04:38:26.514Z,22.22
2023-05-05T04:40:56.819Z,22.23
2023-05-05T04:43:27.160Z,22.22
2023-05-05T04:45:58.710Z,22.22
2023-05-05T04:48:33.909Z,22.23
2023-05-05T04:51:09.394Z,22.26
2023-05-05T04:53:41.501Z,22.23
2023-05-05T04:56:12.785Z,22.19
2023-05-05T04:58:43.610Z,22.19
2023-05-05T05:01:13.966Z,22.18
2023-05-05T05:03:45.547Z,22.21
2023-05-05T05:06:16.033Z,22.23
2023-05-05T05:08:46.882Z,22.22
2023-05-05T05:11:18.560Z,22.26
2023-05-05T05:13:49.525Z,22.22
2023-05-05T05:16:21.393Z,22.25
2023-05-05T05:18:53.108Z,22.19
2023-05-05T05:21:24.980Z,22.18
2023-05-05T05:23:59.000Z,22.12
2023-05-05T05:26:37.712Z,22.09
2023-05-05T05:29:08.795Z,22.19
2023-05-05T05:34:25.424Z,22.12
2023-05-05T05:36:56.949Z,22.13
2023-05-05T05:39:27.186Z,22.12
2023-05-05T05:41:57.423Z,22.08
2023-05-05T05:44:29.452Z,22.13
2023-05-05T05:46:59.988Z,22.11
2023-05-05T05:49:32.164Z,22.09
2023-05-05T05:52:07.076Z,22.12
2023-05-05T05:54:38.331Z,22.06
2023-05-05T05:57:09.368Z,22.09
2023-05-05T05:59:40.159Z,22.06
2023-05-05T06:02:12.118Z,22.05
2023-05-05T06:04:43.861Z,22.06
2023-05-05T06:07:15.544Z,22.06
2023-05-05T06:09:46.881Z,22.05
2023-05-05T06:12:17.922Z,22.04
2023-05-05T06:14:48.107Z,22.02
2023-05-05T06:17:19.169Z,21.98
2023-05-05T06:19:54.776Z,21.92
2023-05-05T06:22:29.496Z,21.90
2023-05-05T06:25:00.234Z,21.94
2023-05-05T06:27:31.369Z,21.97
2023-05-05T06:30:03.265Z,21.94
2023-05-05T06:32:35.302Z,21.87
2023-05-05T06:35:09.208Z,21.80
2023-05-05T06:37:41.021Z,21.81
2023-05-05T06:40:12.765Z,21.85
2023-05-05T06:42:43.954Z,21.95
2023-05-05T06:45:20.604Z,21.95
2023-05-05T06:47:52.206Z,21.95
2023-05-05T06:50:24.532Z,21.94
2023-05-05T06:52:54.819Z,21.92
2023-05-05T06:55:26.064Z,22.00
2023-05-05T06:57:56.464Z,21.97
2023-05-05T07:00:27.775Z,21.97
2023-05-05T07:02:59.587Z,22.02
2023-05-05T07:05:30.529Z,22.08
2023-05-05T07:08:01.855Z,22.08
2023-05-05T07:10:33.321Z,22.05
2023-05-05T07:13:04.751Z,22.04
2023-05-05T07:15:35.676Z,22.02
2023-05-05T07:18:06.946Z,22.01
2023-05-05T07:20:38.424Z,21.97
2023-05-05T07:23:09.622Z,21.97
2023-05-05T07:25:41.752Z,21.95
2023-05-05T07:28:13.817Z,21.88
2023-05-05T07:30:44.319Z,21.81
2023-05-05T07:33:15.107Z,21.77
2023-05-05T07:35:45.891Z,21.80
2023-05-05T07:38:20.300Z,21.75
2023-05-05T07:40:50.891Z,21.77
2023-05-05T07:43:21.040Z,21.78
2023-05-05T07:45:51.923Z,21.81
2023-05-05T07:48:22.801Z,21.82
2023-05-05T07:50:54.783Z,21.78
2023-05-05T07:53:25.195Z,21.77
2023-05-05T07:55:55.996Z,21.77
2023-05-05T07:58:27.669Z,21.73
2023-05-05T08:00:58.869Z,21.74
2023-05-05T08:03:29.447Z,21.77
2023-05-05T08:06:11.185Z,21.82
2023-05-05T08:08:41.435Z,21.81
2023-05-05T08:11:12.658Z,21.84
2023-05-05T08:13:44.657Z,21.85
2023-05-05T08:16:15.439Z,21.85
2023-05-05T08:18:47.349Z,21.84
2023-05-05T08:21:18.381Z,21.84
2023-05-05T08:23:49.922Z,21.81
2023-05-05T08:26:21.256Z,21.82
2023-05-05T08:28:52.403Z,21.80
2023-05-05T08:31:24.958Z,21.82
2023-05-05T08:34:00.128Z,21.81
2023-05-05T08:36:31.567Z,21.78
2023-05-05T08:39:03.919Z,21.77
2023-05-05T08:41:36.047Z,21.78
2023-05-05T08:44:06.695Z,21.78
2023-05-05T08:46:41.023Z,21.80
2023-05-05T08:52:05.790Z,21.84
2023-05-05T08:54:41.302Z,21.85
2023-05-05T08:57:13.025Z,21.98
2023-05-05T08:59:44.095Z,21.88
2023-05-05T09:02:16.729Z,21.85
2023-05-05T09:04:47.925Z,21.84
2023-05-05T09:07:18.971Z,21.84
2023-05-05T09:09:50.048Z,21.85
2023-05-05T09:12:22.203Z,21.87
2023-05-05T09:14:53.706Z,21.87
2023-05-05T09:17:29.158Z,21.84
2023-05-05T09:20:14.513Z,21.91
2023-05-05T09:22:49.857Z,21.90
2023-05-05T09:25:21.128Z,22.00
2023-05-05T09:27:51.782Z,21.91
2023-05-05T09:30:29.441Z,21.95
2023-05-05T09:33:01.104Z,21.92
2023-05-05T09:35:58.307Z,21.92
2023-05-05T09:38:29.426Z,21.95
2023-05-05T09:41:00.859Z,21.97
2023-05-05T09:43:32.235Z,22.00
2023-05-05T09:46:10.619Z,21.91
2023-05-05T09:48:41.199Z,21.94
2023-05-05T09:51:12.000Z,21.88
2023-05-05T09:53:43.709Z,21.95
2023-05-05T09:56:15.140Z,21.88
2023-05-05T09:58:47.167Z,21.87
2023-05-05T10:01:27.609Z,21.88
2023-05-05T10:03:58.702Z,22.00
2023-05-05T10:06:45.671Z,22.04
2023-05-05T10:09:17.869Z,22.04
2023-05-05T10:11:49.072Z,22.02
2023-05-05T10:14:22.694Z,21.94
2023-05-05T10:16:56.377Z,21.87
2023-05-05T10:19:34.884Z,21.84
2023-05-05T10:22:13.478Z,21.81
2023-05-05T10:24:59.870Z,21.80
2023-05-05T10:27:36.068Z,21.80
2023-05-05T10:30:11.684Z,21.78
2023-05-05T10:33:13.195Z,21.82
2023-05-05T10:35:54.566Z,21.80
2023-05-05T10:38:27.965Z,21.94
2023-05-05T10:41:02.363Z,21.95
2023-05-05T10:43:34.937Z,21.97
2023-05-05T10:46:05.825Z,22.06
2023-05-05T10:48:45.149Z,22.23
2023-05-05T10:51:39.536Z,22.43
2023-05-05T10:54:29.745Z,22.42
2023-05-05T10:57:06.230Z,22.42
2023-05-05T10:59:40.346Z,22.62
2023-05-05T11:02:31.121Z,23.89
2023-05-05T11:05:25.816Z,23.88
2023-05-05T11:07:56.480Z,23.62
2023-05-05T11:10:27.580Z,23.79
2023-05-05T11:13:02.122Z,24.25
2023-05-05T11:15:32.537Z,24.26
2023-05-05T11:18:07.954Z,24.13
2023-05-05T11:20:50.524Z,24.09
2023-05-05T11:23:25.382Z,23.99
2023-05-05T11:25:57.305Z,24.02
2023-05-05T11:28:31.416Z,24.06
2023-05-05T11:31:06.183Z,23.99
2023-05-05T11:33:41.810Z,23.98
2023-05-05T11:36:20.282Z,23.85
2023-05-05T11:39:00.525Z,23.82
2023-05-05T11:41:35.255Z,23.82
2023-05-05T11:44:23.668Z,23.89
2023-05-05T11:46:54.727Z,23.90
2023-05-05T11:49:42.099Z,23.84
2023-05-05T11:52:16.834Z,23.81
2023-05-05T11:54:51.879Z,23.74
2023-05-05T11:57:29.490Z,23.81
2023-05-05T12:00:10.506Z,23.72
2023-05-05T12:02:42.158Z,23.79
2023-05-05T12:05:14.081Z,23.79
2023-05-05T12:07:45.717Z,23.82
2023-05-05T12:10:25.029Z,23.72
2023-05-05T12:12:56.593Z,23.67
2023-05-05T12:15:33.164Z,23.74
2023-05-05T12:18:07.678Z,23.71
2023-05-05T12:20:39.491Z,23.69
2023-05-05T12:23:13.692Z,23.69
2023-05-05T12:25:43.894Z,23.78
2023-05-05T12:28:16.765Z,23.78
2023-05-05T12:30:59.156Z,23.81
2023-05-05T12:33:31.241Z,23.82
2023-05-05T12:36:01.767Z,23.72
2023-05-05T12:38:31.990Z,23.75
2023-05-05T12:41:03.346Z,23.75
2023-05-05T12:43:37.418Z,23.78
2023-05-05T12:46:16.747Z,23.85
2023-05-05T12:48:48.729Z,23.96
2023-05-05T12:51:28.232Z,24.06
2023-05-05T12:54:15.253Z,23.99
2023-05-05T12:56:50.790Z,24.02
2023-05-05T12:59:24.916Z,24.05
2023-05-05T13:01:58.470Z,24.20
2023-05-05T13:04:33.965Z,24.22
2023-05-05T13:07:16.670Z,24.20
2023-05-05T13:09:48.305Z,24.20
2023-05-05T13:12:25.099Z,24.26
2023-05-05T13:14:55.562Z,24.25
2023-05-05T13:17:26.542Z,24.32
2023-05-05T13:19:57.665Z,24.35
2023-05-05T13:22:32.099Z,24.52
2023-05-05T13:25:05.682Z,24.50
2023-05-05T13:27:36.055Z,24.53
2023-05-05T13:30:12.344Z,24.55
2023-05-05T13:32:45.125Z,24.44
2023-05-05T13:35:16.679Z,24.35
2023-05-05T13:37:49.208Z,24.29
2023-05-05T13:40:20.416Z,24.36
2023-05-05T13:42:51.842Z,24.47
2023-05-05T13:45:23.259Z,24.43
2023-05-05T13:47:53.541Z,24.57
2023-05-05T13:50:29.174Z,24.61
2023-05-05T13:52:59.302Z,24.76
2023-05-05T13:55:30.994Z,24.76
2023-05-05T13:58:03.115Z,24.77
2023-05-05T14:00:34.983Z,24.71
2023-05-05T14:03:06.926Z,24.61
2023-05-05T14:05:38.875Z,24.77
2023-05-05T14:08:10.372Z,24.74
2023-05-05T14:10:44.779Z,24.74
2023-05-05T14:13:17.905Z,24.67
2023-05-05T14:15:50.221Z,24.79
2023-05-05T14:18:20.593Z,24.79
2023-05-05T14:20:51.491Z,24.73
2023-05-05T14:23:23.226Z,24.81
2023-05-05T14:25:53.484Z,24.79
2023-05-05T14:28:24.356Z,24.71
2023-05-05T14:30:55.321Z,24.81
2023-05-05T14:33:27.043Z,24.88
2023-05-05T14:35:58.503Z,25.03
2023-05-05T14:38:29.574Z,24.86
2023-05-05T14:41:01.323Z,24.73
2023-05-05T14:43:31.512Z,24.26
2023-05-05T14:46:07.845Z,24.05
2023-05-05T14:48:40.321Z,23.85
2023-05-05T14:51:10.530Z,23.67
2023-05-05T14:53:40.761Z,23.59
2023-05-05T14:56:11.334Z,23.44
2023-05-05T14:58:41.734Z,23.34
2023-05-05T15:01:13.321Z,23.27
2023-05-05T15:03:43.931Z,23.18
2023-05-05T15:06:15.046Z,23.11
2023-05-05T15:08:46.240Z,23.08
2023-05-05T15:11:17.737Z,23.02
2023-05-05T15:13:49.569Z,23.02
2023-05-05T15:16:20.367Z,23.04
2023-05-05T15:18:52.086Z,23.11
2023-05-05T15:21:23.563Z,23.13
2023-05-05T15:23:53.970Z,23.11
2023-05-05T15:26:25.269Z,23.04
2023-05-05T15:28:56.462Z,23.02
2023-05-05T15:31:26.846Z,22.97
2023-05-05T15:33:59.011Z,23.13
2023-05-05T15:36:30.061Z,23.17
2023-05-05T15:39:01.488Z,23.20
2023-05-05T15:41:32.628Z,23.27
2023-05-05T15:44:05.448Z,23.35
2023-05-05T15:46:35.919Z,23.41
2023-05-05T15:49:06.973Z,23.44
2023-05-05T15:51:38.301Z,23.44
2023-05-05T15:54:09.178Z,23.43
2023-05-05T15:56:39.622Z,23.41
2023-05-05T15:59:10.871Z,23.47
2023-05-05T16:01:42.061Z,23.47
2023-05-05T16:04:13.211Z,23.53
2023-05-05T16:06:43.383Z,23.64
2023-05-05T16:09:13.634Z,23.57
2023-05-05T16:11:44.865Z,23.64
2023-05-05T16:14:17.076Z,23.61
2023-05-05T16:16:47.297Z,23.62
2023-05-05T16:19:18.007Z,23.72
2023-05-05T16:21:50.690Z,23.69
2023-05-05T16:24:21.130Z,23.64
2023-05-05T16:26:54.007Z,23.61
2023-05-05T16:29:27.407Z,23.61
2023-05-05T16:34:26.366Z,23.43
2023-05-05T16:36:57.486Z,23.40
2023-05-05T16:39:27.672Z,23.34
2023-05-05T16:41:58.077Z,23.30
2023-05-05T16:44:28.886Z,23.25
2023-05-05T16:47:00.857Z,23.23
2023-05-05T16:49:31.307Z,23.35
2023-05-05T16:52:03.989Z,23.44
2023-05-05T16:54:35.452Z,23.48
2023-05-05T16:57:06.338Z,23.55
2023-05-05T16:59:38.693Z,23.54
2023-05-05T17:02:10.709Z,23.48
2023-05-05T17:04:43.938Z,23.53
2023-05-05T17:07:14.195Z,23.54
2023-05-05T17:09:47.462Z,23.55
2023-05-05T17:12:17.719Z,23.57
2023-05-05T17:14:47.836Z,23.54
2023-05-05T17:17:21.758Z,23.53
2023-05-05T17:19:55.573Z,23.48
2023-05-05T17:22:26.607Z,23.40
2023-05-05T17:24:56.792Z,23.38
2023-05-05T17:27:29.619Z,23.43
2023-05-05T17:30:00.772Z,23.41
2023-05-05T17:32:30.886Z,23.33
2023-05-05T17:35:02.067Z,23.35
2023-05-05T17:37:36.287Z,23.31
2023-05-05T17:40:09.564Z,23.27
2023-05-05T17:42:41.062Z,23.28
2023-05-05T17:45:14.089Z,23.25
2023-05-05T17:47:45.249Z,23.21
2023-05-05T17:50:16.896Z,23.17
2023-05-05T17:52:48.758Z,23.13
2023-05-05T17:55:20.230Z,23.06
2023-05-05T17:57:51.422Z,23.02
2023-05-05T18:00:24.628Z,22.97
2023-05-05T18:02:56.171Z,22.96
2023-05-05T18:05:27.155Z,23.00
2023-05-05T18:07:58.218Z,22.93
2023-05-05T18:10:29.848Z,22.93
2023-05-05T18:13:02.775Z,22.92
2023-05-05T18:15:33.240Z,22.93
2023-05-05T18:18:04.607Z,22.83
2023-05-05T18:20:34.912Z,22.79
2023-05-05T18:23:08.841Z,22.76
2023-05-05T18:25:40.040Z,22.64
2023-05-05T18:28:13.092Z,22.59
2023-05-05T18:30:44.829Z,22.57
2023-05-05T18:33:15.879Z,22.51
2023-05-05T18:35:46.799Z,22.49
2023-05-05T18:38:17.109Z,22.42
2023-05-05T18:40:49.826Z,22.35
2023-05-05T18:43:21.190Z,22.43
2023-05-05T18:45:52.742Z,22.41
2023-05-05T18:48:23.701Z,22.42
2023-05-05T18:50:54.330Z,22.42
2023-05-05T18:53:27.289Z,22.38
2023-05-05T18:56:03.688Z,22.35
2023-05-05T18:58:34.386Z,22.31
2023-05-05T19:01:04.693Z,22.32
2023-05-05T19:03:36.052Z,22.33
2023-05-05T19:06:09.471Z,22.29
2023-05-05T19:08:40.920Z,22.28
2023-05-05T19:11:12.699Z,22.26
2023-05-05T19:13:44.297Z,22.23
2023-05-05T19:16:15.915Z,22.23
2023-05-05T19:18:47.165Z,22.21
2023-05-05T19:21:20.189Z,22.22
2023-05-05T19:23:52.862Z,22.21
2023-05-05T19:26:23.344Z,22.18
2023-05-05T19:28:53.446Z,22.19
2023-05-05T19:31:29.707Z,22.16
2023-05-05T19:34:03.883Z,22.13
2023-05-05T19:36:36.229Z,22.12
2023-05-05T19:39:06.973Z,22.11
2023-05-05T19:41:37.065Z,22.06
2023-05-05T19:44:07.634Z,22.09
2023-05-05T19:46:39.475Z,22.11
2023-05-05T19:49:11.552Z,22.09
2023-05-05T19:51:44.110Z,22.11
2023-05-05T19:54:14.594Z,22.08
2023-05-05T19:56:46.399Z,22.04
2023-05-05T19:59:17.983Z,21.95
2023-05-05T20:01:49.410Z,21.98
2023-05-05T20:04:20.794Z,22.01
2023-05-05T20:06:51.308Z,22.04
2023-05-05T20:09:22.716Z,22.00
2023-05-05T20:11:54.285Z,22.04
2023-05-05T20:14:25.481Z,21.98
2023-05-05T20:16:56.095Z,22.01
2023-05-05T20:19:27.077Z,22.00
2023-05-05T20:21:58.446Z,21.98
2023-05-05T20:24:31.146Z,21.97
2023-05-05T20:27:02.332Z,21.94
2023-05-05T20:29:32.713Z,21.92
2023-05-05T20:32:28.522Z,21.95
2023-05-05T20:34:59.639Z,21.97
2023-05-05T20:37:30.070Z,21.94
2023-05-05T20:40:01.662Z,21.95
2023-05-05T20:42:33.229Z,21.98
2023-05-05T20:45:04.689Z,21.92
2023-05-05T20:47:37.871Z,21.98
2023-05-05T20:50:09.721Z,21.97
2023-05-05T20:52:41.423Z,21.92
2023-05-05T20:55:11.891Z,21.97
2023-05-05T20:57:42.908Z,21.88
2023-05-05T21:00:14.927Z,21.88
2023-05-05T21:02:46.386Z,21.90
2023-05-05T21:05:19.330Z,21.87
2023-05-05T21:07:50.357Z,21.87
2023-05-05T21:10:21.501Z,21.82
2023-05-05T21:12:54.001Z,21.87
2023-05-05T21:15:24.290Z,21.85
2023-05-05T21:17:54.524Z,21.82
2023-05-05T21:20:25.759Z,21.87
2023-05-05T21:22:56.753Z,21.80
2023-05-05T21:25:29.336Z,21.87
2023-05-05T21:28:00.151Z,21.87
2023-05-05T21:30:31.584Z,21.81
2023-05-05T21:33:04.443Z,21.78
2023-05-05T21:35:35.127Z,21.80
2023-05-05T21:38:10.728Z,21.82
2023-05-05T21:40:42.378Z,21.78
2023-05-05T21:43:13.521Z,21.82
2023-05-05T21:45:45.152Z,21.81
2023-05-05T21:48:15.112Z,21.80
2023-05-05T21:50:45.480Z,21.78
2023-05-05T21:53:18.410Z,21.80
2023-05-05T21:55:50.327Z,21.80
2023-05-05T21:58:23.932Z,21.82
2023-05-05T22:00:55.357Z,21.85
2023-05-05T22:03:28.623Z,21.82
2023-05-05T22:05:59.654Z,21.81
2023-05-05T22:08:31.119Z,21.80
2023-05-05T22:11:04.061Z,21.74
2023-05-05T22:13:36.244Z,21.71
2023-05-05T22:16:09.551Z,21.75
2023-05-05T22:18:41.035Z,21.78
2023-05-05T22:21:11.969Z,21.75
2023-05-05T22:23:45.878Z,21.75
2023-05-05T22:26:17.051Z,21.74
2023-05-05T22:28:49.010Z,21.80
2023-05-05T22:31:20.834Z,21.75
2023-05-05T22:33:52.496Z,21.73
2023-05-05T22:36:24.731Z,21.75
2023-05-05T22:38:56.495Z,21.77
2023-05-05T22:41:28.931Z,21.77
2023-05-05T22:43:59.794Z,21.75
2023-05-05T22:46:32.393Z,21.78
2023-05-05T22:49:02.911Z,21.80
2023-05-05T22:51:34.125Z,21.80
2023-05-05T22:54:04.542Z,21.78
2023-05-05T22:56:35.414Z,21.77
2023-05-05T22:59:08.304Z,21.78
2023-05-05T23:01:40.833Z,21.74
2023-05-05T23:04:11.798Z,21.78
2023-05-05T23:06:42.817Z,21.75
2023-05-05T23:09:13.921Z,21.78
2023-05-05T23:11:45.624Z,21.75
2023-05-05T23:14:17.501Z,21.81
2023-05-05T23:16:50.715Z,21.80
2023-05-05T23:19:23.384Z,21.81
2023-05-05T23:21:54.081Z,21.81
2023-05-05T23:24:25.719Z,21.77
2023-05-05T23:26:57.590Z,21.77
2023-05-05T23:29:27.912Z,21.68
2023-05-05T23:31:59.538Z,21.67
2023-05-05T23:34:30.680Z,21.64
2023-05-05T23:37:00.672Z,21.62
2023-05-05T23:39:32.003Z,21.62
2023-05-05T23:42:05.820Z,21.65
2023-05-05T23:44:37.410Z,21.70
2023-05-05T23:47:08.572Z,21.68
2023-05-05T23:49:39.312Z,21.64
2023-05-05T23:52:13.399Z,21.67
2023-05-05T23:54:44.920Z,21.65
2023-05-05T23:57:15.873Z,21.65
2023-05-05T23:59:47.539Z,21.68
